EIKN/NOC METAR and TAF weather

Enter ICAO airport designator
Station Type Date Time Source
EIKN METAR 2018/01/19 19:00 UTC NOAA

EIKN 191900Z 23006KT 9999 FEW018CB SCT038 BKN170 01/00 Q1004 NOSIG


Station Type Date Time Source
EIKN Decoded METAR 2018/01/19 19:00 UTC NOAA

Connaught, Ireland (EIKN) 53-54-37N 008-49-05W
Jan 19, 2018 - 02:00 PM EST / 2018.01.19 1900 UTC
Wind: from the SW (230 degrees) at 7 MPH (6 KT):0
Visibility: greater than 7 mile(s):0
Sky conditions: mostly cloudy
Weather: Cumulonimbus clouds observed
Temperature: 33 F (1 C)
Windchill: 26 F (-3 C):1
Dew Point: 32 F (0 C)
Relative Humidity: 93%
Pressure (altimeter): 29.65 in. Hg (1004 hPa)
ob: EIKN 191900Z 23006KT 9999 FEW018CB SCT038 BKN170 01/00 Q1004 NOSIG
cycle: 19

Station Type Date Time Source
EIKN TAF 2018/01/19 18:10 UTC NOAA

TAF EIKN 191700Z 1918/2018 27010KT 9999 BKN018
TEMPO 1918/1920 7000 -SHRASN BKN008 SCT018CB
BECMG 1920/1923 20007KT
BECMG 2001/2004 13005KT 3000 -RADZ SCT002 BKN005
TEMPO 2003/2012 1200 -RASN BR BKN002 PROB30
TEMPO 2003/2012 0300 SN FG BKN001
BECMG 2008/2011 09008KT
BECMG 2014/2016 9999 BKN015
TEMPO 2014/2018 BKN008


Example: see airport list